sensor_id;sensor_type;location;lat;lon;timestamp;P1;durP1;ratioP1;P2;durP2;ratioP2
22144;SDS011;11238;48.730;11.566;2023-07-02T00:01:47;3.67;;;2.55;;
22144;SDS011;11238;48.730;11.566;2023-07-02T00:04:13;3.28;;;2.17;;
22144;SDS011;11238;48.730;11.566;2023-07-02T00:06:42;2.88;;;2.30;;
22144;SDS011;11238;48.730;11.566;2023-07-02T00:09:08;3.38;;;2.30;;
22144;SDS011;11238;48.730;11.566;2023-07-02T00:11:37;3.15;;;2.22;;
22144;SDS011;11238;48.730;11.566;2023-07-02T00:14:04;3.58;;;1.92;;
22144;SDS011;11238;48.730;11.566;2023-07-02T00:16:31;4.20;;;2.63;;
22144;SDS011;11238;48.730;11.566;2023-07-02T00:18:57;5.45;;;2.58;;
22144;SDS011;11238;48.730;11.566;2023-07-02T00:21:25;3.53;;;2.30;;
22144;SDS011;11238;48.730;11.566;2023-07-02T00:23:56;3.15;;;2.50;;
22144;SDS011;11238;48.730;11.566;2023-07-02T00:26:24;7.70;;;2.50;;
22144;SDS011;11238;48.730;11.566;2023-07-02T00:28:50;4.82;;;2.40;;
22144;SDS011;11238;48.730;11.566;2023-07-02T00:31:16;5.05;;;2.60;;
22144;SDS011;11238;48.730;11.566;2023-07-02T00:33:42;4.43;;;2.85;;
22144;SDS011;11238;48.730;11.566;2023-07-02T00:36:08;6.22;;;2.67;;
22144;SDS011;11238;48.730;11.566;2023-07-02T00:39:01;2.50;;;2.30;;
22144;SDS011;11238;48.730;11.566;2023-07-02T00:41:28;3.80;;;2.65;;
22144;SDS011;11238;48.730;11.566;2023-07-02T00:43:55;4.63;;;2.40;;
22144;SDS011;11238;48.730;11.566;2023-07-02T00:46:21;3.50;;;2.78;;
22144;SDS011;11238;48.730;11.566;2023-07-02T00:48:54;5.78;;;2.60;;
22144;SDS011;11238;48.730;11.566;2023-07-02T00:51:25;3.97;;;2.72;;
22144;SDS011;11238;48.730;11.566;2023-07-02T00:53:53;3.28;;;2.40;;
22144;SDS011;11238;48.730;11.566;2023-07-02T00:56:21;2.70;;;2.50;;
22144;SDS011;11238;48.730;11.566;2023-07-02T00:58:48;4.32;;;2.90;;
22144;SDS011;11238;48.730;11.566;2023-07-02T01:01:16;6.75;;;2.47;;
22144;SDS011;11238;48.730;11.566;2023-07-02T01:03:54;7.13;;;2.80;;
22144;SDS011;11238;48.730;11.566;2023-07-02T01:06:29;5.95;;;2.60;;
22144;SDS011;11238;48.730;11.566;2023-07-02T01:09:04;4.15;;;2.83;;
22144;SDS011;11238;48.730;11.566;2023-07-02T01:11:46;4.40;;;2.42;;
22144;SDS011;11238;48.730;11.566;2023-07-02T01:16:50;7.38;;;3.00;;
22144;SDS011;11238;48.730;11.566;2023-07-02T01:22:07;7.07;;;2.80;;
22144;SDS011;11238;48.730;11.566;2023-07-02T01:24:35;3.17;;;2.88;;
22144;SDS011;11238;48.730;11.566;2023-07-02T01:27:02;3.08;;;2.63;;
22144;SDS011;11238;48.730;11.566;2023-07-02T01:29:29;3.50;;;2.60;;
22144;SDS011;11238;48.730;11.566;2023-07-02T01:31:55;9.45;;;2.97;;
22144;SDS011;11238;48.730;11.566;2023-07-02T01:34:21;6.05;;;2.95;;
22144;SDS011;11238;48.730;11.566;2023-07-02T01:36:47;6.00;;;3.00;;
22144;SDS011;11238;48.730;11.566;2023-07-02T01:39:14;4.70;;;2.75;;
22144;SDS011;11238;48.730;11.566;2023-07-02T01:41:44;3.92;;;3.08;;
22144;SDS011;11238;48.730;11.566;2023-07-02T01:44:14;7.75;;;2.78;;
22144;SDS011;11238;48.730;11.566;2023-07-02T01:46:40;5.25;;;3.00;;
22144;SDS011;11238;48.730;11.566;2023-07-02T01:49:06;6.20;;;3.40;;
22144;SDS011;11238;48.730;11.566;2023-07-02T01:51:32;3.58;;;3.20;;
22144;SDS011;11238;48.730;11.566;2023-07-02T01:53:59;6.68;;;3.40;;
22144;SDS011;11238;48.730;11.566;2023-07-02T01:56:47;5.07;;;3.42;;
22144;SDS011;11238;48.730;11.566;2023-07-02T01:59:13;7.43;;;3.33;;
22144;SDS011;11238;48.730;11.566;2023-07-02T02:01:40;4.55;;;3.45;;
22144;SDS011;11238;48.730;11.566;2023-07-02T02:04:06;4.55;;;3.45;;
22144;SDS011;11238;48.730;11.566;2023-07-02T02:06:33;3.67;;;3.30;;
22144;SDS011;11238;48.730;11.566;2023-07-02T02:08:59;3.67;;;3.20;;
22144;SDS011;11238;48.730;11.566;2023-07-02T02:11:25;8.00;;;3.70;;
22144;SDS011;11238;48.730;11.566;2023-07-02T02:13:51;4.25;;;3.00;;
22144;SDS011;11238;48.730;11.566;2023-07-02T02:16:17;5.35;;;3.17;;
22144;SDS011;11238;48.730;11.566;2023-07-02T02:18:43;5.65;;;3.38;;
22144;SDS011;11238;48.730;11.566;2023-07-02T02:21:09;5.10;;;3.55;;
22144;SDS011;11238;48.730;11.566;2023-07-02T02:23:35;7.30;;;3.30;;
22144;SDS011;11238;48.730;11.566;2023-07-02T02:26:01;4.28;;;3.35;;
22144;SDS011;11238;48.730;11.566;2023-07-02T02:28:27;4.07;;;3.20;;
22144;SDS011;11238;48.730;11.566;2023-07-02T02:30:52;7.50;;;3.10;;
22144;SDS011;11238;48.730;11.566;2023-07-02T02:33:37;6.55;;;3.80;;
22144;SDS011;11238;48.730;11.566;2023-07-02T02:36:22;4.22;;;3.72;;
22144;SDS011;11238;48.730;11.566;2023-07-02T02:38:48;4.70;;;3.40;;
22144;SDS011;11238;48.730;11.566;2023-07-02T02:41:15;5.57;;;3.40;;
22144;SDS011;11238;48.730;11.566;2023-07-02T02:43:46;6.03;;;3.60;;
22144;SDS011;11238;48.730;11.566;2023-07-02T02:46:33;4.82;;;3.40;;
22144;SDS011;11238;48.730;11.566;2023-07-02T02:48:59;3.97;;;3.53;;
22144;SDS011;11238;48.730;11.566;2023-07-02T02:51:25;4.35;;;3.45;;
22144;SDS011;11238;48.730;11.566;2023-07-02T02:53:51;6.75;;;3.60;;
22144;SDS011;11238;48.730;11.566;2023-07-02T02:56:17;4.05;;;3.05;;
22144;SDS011;11238;48.730;11.566;2023-07-02T02:58:43;4.63;;;3.28;;
22144;SDS011;11238;48.730;11.566;2023-07-02T03:01:09;4.07;;;3.67;;
22144;SDS011;11238;48.730;11.566;2023-07-02T03:03:38;3.53;;;2.95;;
22144;SDS011;11238;48.730;11.566;2023-07-02T03:06:11;8.20;;;3.60;;
22144;SDS011;11238;48.730;11.566;2023-07-02T03:08:38;3.42;;;2.85;;
22144;SDS011;11238;48.730;11.566;2023-07-02T03:11:04;3.72;;;2.85;;
22144;SDS011;11238;48.730;11.566;2023-07-02T03:13:30;6.00;;;3.13;;
22144;SDS011;11238;48.730;11.566;2023-07-02T03:15:56;6.60;;;2.97;;
22144;SDS011;11238;48.730;11.566;2023-07-02T03:18:22;4.47;;;3.10;;
22144;SDS011;11238;48.730;11.566;2023-07-02T03:20:48;6.00;;;3.17;;
22144;SDS011;11238;48.730;11.566;2023-07-02T03:23:14;4.65;;;3.08;;
22144;SDS011;11238;48.730;11.566;2023-07-02T03:25:40;4.82;;;2.97;;
22144;SDS011;11238;48.730;11.566;2023-07-02T03:28:05;6.65;;;3.45;;
22144;SDS011;11238;48.730;11.566;2023-07-02T03:30:31;5.60;;;3.10;;
22144;SDS011;11238;48.730;11.566;2023-07-02T03:32:57;8.00;;;3.03;;
22144;SDS011;11238;48.730;11.566;2023-07-02T03:35:23;7.47;;;3.50;;
22144;SDS011;11238;48.730;11.566;2023-07-02T03:37:49;6.00;;;2.83;;
22144;SDS011;11238;48.730;11.566;2023-07-02T03:40:15;3.88;;;2.72;;
22144;SDS011;11238;48.730;11.566;2023-07-02T03:42:41;4.53;;;2.90;;
22144;SDS011;11238;48.730;11.566;2023-07-02T03:45:09;3.70;;;3.00;;
22144;SDS011;11238;48.730;11.566;2023-07-02T03:47:38;4.55;;;2.97;;
22144;SDS011;11238;48.730;11.566;2023-07-02T03:50:03;4.28;;;3.00;;
22144;SDS011;11238;48.730;11.566;2023-07-02T03:52:30;5.93;;;3.15;;
22144;SDS011;11238;48.730;11.566;2023-07-02T03:54:55;4.10;;;2.90;;
22144;SDS011;11238;48.730;11.566;2023-07-02T03:57:21;6.30;;;3.20;;
22144;SDS011;11238;48.730;11.566;2023-07-02T03:59:47;5.82;;;3.08;;
22144;SDS011;11238;48.730;11.566;2023-07-02T04:02:12;5.25;;;2.90;;
22144;SDS011;11238;48.730;11.566;2023-07-02T04:04:38;6.10;;;3.30;;
22144;SDS011;11238;48.730;11.566;2023-07-02T04:07:05;3.95;;;3.17;;
22144;SDS011;11238;48.730;11.566;2023-07-02T04:09:30;4.80;;;3.03;;
22144;SDS011;11238;48.730;11.566;2023-07-02T04:11:59;5.45;;;3.10;;
22144;SDS011;11238;48.730;11.566;2023-07-02T04:14:26;3.28;;;2.75;;
22144;SDS011;11238;48.730;11.566;2023-07-02T04:16:52;5.07;;;3.38;;
22144;SDS011;11238;48.730;11.566;2023-07-02T04:19:17;7.03;;;3.05;;
22144;SDS011;11238;48.730;11.566;2023-07-02T04:21:44;5.40;;;3.30;;
22144;SDS011;11238;48.730;11.566;2023-07-02T04:24:09;7.10;;;3.20;;
22144;SDS011;11238;48.730;11.566;2023-07-02T04:26:36;4.25;;;3.22;;
22144;SDS011;11238;48.730;11.566;2023-07-02T04:29:02;6.57;;;3.10;;
22144;SDS011;11238;48.730;11.566;2023-07-02T04:31:28;3.90;;;3.00;;
22144;SDS011;11238;48.730;11.566;2023-07-02T04:33:53;4.75;;;3.10;;
22144;SDS011;11238;48.730;11.566;2023-07-02T04:36:20;4.03;;;3.10;;
22144;SDS011;11238;48.730;11.566;2023-07-02T04:38:45;5.85;;;2.80;;
22144;SDS011;11238;48.730;11.566;2023-07-02T04:41:11;3.92;;;3.40;;
22144;SDS011;11238;48.730;11.566;2023-07-02T04:43:37;11.05;;;3.13;;
22144;SDS011;11238;48.730;11.566;2023-07-02T04:46:03;4.97;;;3.10;;
22144;SDS011;11238;48.730;11.566;2023-07-02T04:48:33;3.20;;;2.88;;
22144;SDS011;11238;48.730;11.566;2023-07-02T04:50:59;3.45;;;3.10;;
22144;SDS011;11238;48.730;11.566;2023-07-02T04:53:24;5.47;;;2.70;;
22144;SDS011;11238;48.730;11.566;2023-07-02T04:55:50;5.75;;;2.95;;
22144;SDS011;11238;48.730;11.566;2023-07-02T04:58:16;6.00;;;3.30;;
22144;SDS011;11238;48.730;11.566;2023-07-02T05:00:42;5.15;;;3.10;;
22144;SDS011;11238;48.730;11.566;2023-07-02T05:03:07;5.38;;;3.00;;
22144;SDS011;11238;48.730;11.566;2023-07-02T05:05:33;4.68;;;2.92;;
22144;SDS011;11238;48.730;11.566;2023-07-02T05:07:59;5.03;;;2.58;;
22144;SDS011;11238;48.730;11.566;2023-07-02T05:10:25;4.03;;;2.70;;
22144;SDS011;11238;48.730;11.566;2023-07-02T05:12:51;6.25;;;3.00;;
22144;SDS011;11238;48.730;11.566;2023-07-02T05:15:17;4.57;;;2.75;;
22144;SDS011;11238;48.730;11.566;2023-07-02T05:17:43;4.90;;;2.90;;
22144;SDS011;11238;48.730;11.566;2023-07-02T05:20:09;6.45;;;2.97;;
22144;SDS011;11238;48.730;11.566;2023-07-02T05:22:36;4.10;;;2.70;;
22144;SDS011;11238;48.730;11.566;2023-07-02T05:25:01;5.18;;;2.75;;
22144;SDS011;11238;48.730;11.566;2023-07-02T05:27:28;7.28;;;2.92;;
22144;SDS011;11238;48.730;11.566;2023-07-02T05:29:54;7.75;;;2.67;;
22144;SDS011;11238;48.730;11.566;2023-07-02T05:32:20;9.32;;;2.97;;
22144;SDS011;11238;48.730;11.566;2023-07-02T05:34:46;3.55;;;2.63;;
22144;SDS011;11238;48.730;11.566;2023-07-02T05:37:12;6.40;;;2.33;;
22144;SDS011;11238;48.730;11.566;2023-07-02T05:39:37;4.72;;;2.67;;
22144;SDS011;11238;48.730;11.566;2023-07-02T05:42:03;7.47;;;2.80;;
22144;SDS011;11238;48.730;11.566;2023-07-02T05:44:30;4.03;;;2.60;;
22144;SDS011;11238;48.730;11.566;2023-07-02T05:46:55;4.15;;;2.50;;
22144;SDS011;11238;48.730;11.566;2023-07-02T05:49:21;2.92;;;2.63;;
22144;SDS011;11238;48.730;11.566;2023-07-02T05:51:48;3.97;;;2.90;;
22144;SDS011;11238;48.730;11.566;2023-07-02T05:54:14;5.00;;;2.75;;
22144;SDS011;11238;48.730;11.566;2023-07-02T05:56:40;5.32;;;2.58;;
22144;SDS011;11238;48.730;11.566;2023-07-02T05:59:06;3.85;;;2.40;;
22144;SDS011;11238;48.730;11.566;2023-07-02T06:01:31;6.45;;;3.00;;
22144;SDS011;11238;48.730;11.566;2023-07-02T06:03:57;4.07;;;2.72;;
22144;SDS011;11238;48.730;11.566;2023-07-02T06:06:22;5.22;;;3.10;;
22144;SDS011;11238;48.730;11.566;2023-07-02T06:08:49;4.82;;;2.42;;
22144;SDS011;11238;48.730;11.566;2023-07-02T06:11:15;5.78;;;2.75;;
22144;SDS011;11238;48.730;11.566;2023-07-02T06:13:41;5.63;;;2.63;;
22144;SDS011;11238;48.730;11.566;2023-07-02T06:16:07;3.65;;;2.67;;
22144;SDS011;11238;48.730;11.566;2023-07-02T06:18:34;3.97;;;2.63;;
22144;SDS011;11238;48.730;11.566;2023-07-02T06:21:00;3.30;;;2.45;;
22144;SDS011;11238;48.730;11.566;2023-07-02T06:23:26;5.60;;;2.63;;
22144;SDS011;11238;48.730;11.566;2023-07-02T06:25:51;5.40;;;2.95;;
22144;SDS011;11238;48.730;11.566;2023-07-02T06:28:25;2.92;;;2.60;;
22144;SDS011;11238;48.730;11.566;2023-07-02T06:30:52;3.30;;;2.53;;
22144;SDS011;11238;48.730;11.566;2023-07-02T06:33:17;5.88;;;2.83;;
22144;SDS011;11238;48.730;11.566;2023-07-02T06:35:43;7.90;;;4.13;;
22144;SDS011;11238;48.730;11.566;2023-07-02T06:38:09;3.45;;;2.58;;
22144;SDS011;11238;48.730;11.566;2023-07-02T06:40:34;5.35;;;3.15;;
22144;SDS011;11238;48.730;11.566;2023-07-02T06:43:00;4.72;;;2.88;;
22144;SDS011;11238;48.730;11.566;2023-07-02T06:45:26;6.93;;;3.17;;
22144;SDS011;11238;48.730;11.566;2023-07-02T06:47:51;7.07;;;3.30;;
22144;SDS011;11238;48.730;11.566;2023-07-02T06:50:17;7.35;;;3.33;;
22144;SDS011;11238;48.730;11.566;2023-07-02T06:52:44;4.90;;;3.03;;
22144;SDS011;11238;48.730;11.566;2023-07-02T06:55:09;6.85;;;3.78;;
22144;SDS011;11238;48.730;11.566;2023-07-02T06:57:35;5.68;;;3.00;;
22144;SDS011;11238;48.730;11.566;2023-07-02T07:00:08;6.90;;;3.90;;
22144;SDS011;11238;48.730;11.566;2023-07-02T07:02:34;8.13;;;4.60;;
22144;SDS011;11238;48.730;11.566;2023-07-02T07:05:00;6.72;;;4.13;;
22144;SDS011;11238;48.730;11.566;2023-07-02T07:07:26;7.72;;;4.35;;
22144;SDS011;11238;48.730;11.566;2023-07-02T07:09:53;9.85;;;3.80;;
22144;SDS011;11238;48.730;11.566;2023-07-02T07:12:21;9.45;;;4.00;;
22144;SDS011;11238;48.730;11.566;2023-07-02T07:14:47;8.02;;;4.18;;
22144;SDS011;11238;48.730;11.566;2023-07-02T07:17:14;10.10;;;5.07;;
22144;SDS011;11238;48.730;11.566;2023-07-02T07:19:40;13.00;;;6.90;;
22144;SDS011;11238;48.730;11.566;2023-07-02T07:22:24;15.57;;;8.68;;
22144;SDS011;11238;48.730;11.566;2023-07-02T07:24:50;18.67;;;8.85;;
22144;SDS011;11238;48.730;11.566;2023-07-02T07:27:16;17.75;;;9.27;;
22144;SDS011;11238;48.730;11.566;2023-07-02T07:29:42;16.90;;;8.85;;
22144;SDS011;11238;48.730;11.566;2023-07-02T07:32:08;18.27;;;9.02;;
22144;SDS011;11238;48.730;11.566;2023-07-02T07:34:33;15.18;;;8.82;;
22144;SDS011;11238;48.730;11.566;2023-07-02T07:36:59;20.92;;;10.52;;
22144;SDS011;11238;48.730;11.566;2023-07-02T07:39:25;18.80;;;11.00;;
22144;SDS011;11238;48.730;11.566;2023-07-02T07:41:52;23.25;;;11.07;;
22144;SDS011;11238;48.730;11.566;2023-07-02T07:44:18;19.15;;;11.88;;
22144;SDS011;11238;48.730;11.566;2023-07-02T07:46:43;27.27;;;12.63;;
22144;SDS011;11238;48.730;11.566;2023-07-02T07:49:09;22.42;;;11.88;;
22144;SDS011;11238;48.730;11.566;2023-07-02T07:51:35;20.50;;;10.88;;
22144;SDS011;11238;48.730;11.566;2023-07-02T07:54:04;26.50;;;11.48;;
22144;SDS011;11238;48.730;11.566;2023-07-02T07:56:29;20.60;;;10.75;;
22144;SDS011;11238;48.730;11.566;2023-07-02T07:58:55;18.13;;;10.70;;
22144;SDS011;11238;48.730;11.566;2023-07-02T08:01:21;21.35;;;10.80;;
22144;SDS011;11238;48.730;11.566;2023-07-02T08:03:47;21.80;;;12.00;;
22144;SDS011;11238;48.730;11.566;2023-07-02T08:06:13;19.58;;;9.85;;
22144;SDS011;11238;48.730;11.566;2023-07-02T08:08:39;22.00;;;12.65;;
22144;SDS011;11238;48.730;11.566;2023-07-02T08:11:05;19.52;;;9.95;;
22144;SDS011;11238;48.730;11.566;2023-07-02T08:13:30;19.58;;;10.23;;
22144;SDS011;11238;48.730;11.566;2023-07-02T08:15:57;22.42;;;10.82;;
22144;SDS011;11238;48.730;11.566;2023-07-02T08:18:22;19.17;;;10.45;;
22144;SDS011;11238;48.730;11.566;2023-07-02T08:20:49;18.80;;;8.45;;
22144;SDS011;11238;48.730;11.566;2023-07-02T08:23:14;18.35;;;9.85;;
22144;SDS011;11238;48.730;11.566;2023-07-02T08:25:41;17.98;;;9.70;;
22144;SDS011;11238;48.730;11.566;2023-07-02T08:28:06;17.80;;;9.95;;
22144;SDS011;11238;48.730;11.566;2023-07-02T08:30:33;15.75;;;9.35;;
22144;SDS011;11238;48.730;11.566;2023-07-02T08:32:58;16.15;;;9.20;;
22144;SDS011;11238;48.730;11.566;2023-07-02T08:35:24;20.17;;;9.40;;
22144;SDS011;11238;48.730;11.566;2023-07-02T08:37:50;17.23;;;9.15;;
22144;SDS011;11238;48.730;11.566;2023-07-02T08:40:16;17.83;;;9.20;;
22144;SDS011;11238;48.730;11.566;2023-07-02T08:42:44;19.98;;;9.23;;
22144;SDS011;11238;48.730;11.566;2023-07-02T08:45:11;15.82;;;8.57;;
22144;SDS011;11238;48.730;11.566;2023-07-02T08:47:38;15.43;;;8.13;;
22144;SDS011;11238;48.730;11.566;2023-07-02T08:50:04;14.75;;;8.48;;
22144;SDS011;11238;48.730;11.566;2023-07-02T08:52:32;15.23;;;8.00;;
22144;SDS011;11238;48.730;11.566;2023-07-02T08:54:57;19.80;;;7.85;;
22144;SDS011;11238;48.730;11.566;2023-07-02T08:57:26;15.43;;;9.00;;
22144;SDS011;11238;48.730;11.566;2023-07-02T08:59:51;13.93;;;7.53;;
22144;SDS011;11238;48.730;11.566;2023-07-02T09:02:17;17.20;;;7.85;;
22144;SDS011;11238;48.730;11.566;2023-07-02T09:04:43;12.93;;;7.40;;
22144;SDS011;11238;48.730;11.566;2023-07-02T09:07:10;12.57;;;8.02;;
22144;SDS011;11238;48.730;11.566;2023-07-02T09:09:48;13.27;;;7.15;;
22144;SDS011;11238;48.730;11.566;2023-07-02T09:12:28;12.77;;;7.45;;
22144;SDS011;11238;48.730;11.566;2023-07-02T09:17:26;12.73;;;8.05;;
22144;SDS011;11238;48.730;11.566;2023-07-02T09:19:54;17.55;;;8.38;;
22144;SDS011;11238;48.730;11.566;2023-07-02T09:22:20;14.40;;;8.38;;
22144;SDS011;11238;48.730;11.566;2023-07-02T09:24:56;18.30;;;8.10;;
22144;SDS011;11238;48.730;11.566;2023-07-02T09:27:33;12.73;;;7.93;;
22144;SDS011;11238;48.730;11.566;2023-07-02T09:30:09;17.70;;;9.40;;
22144;SDS011;11238;48.730;11.566;2023-07-02T09:32:44;21.60;;;9.02;;
22144;SDS011;11238;48.730;11.566;2023-07-02T09:35:10;13.98;;;8.43;;
22144;SDS011;11238;48.730;11.566;2023-07-02T09:37:37;19.33;;;9.18;;
22144;SDS011;11238;48.730;11.566;2023-07-02T09:40:04;16.90;;;8.80;;
22144;SDS011;11238;48.730;11.566;2023-07-02T09:42:34;18.83;;;8.23;;
22144;SDS011;11238;48.730;11.566;2023-07-02T09:45:02;16.20;;;8.27;;
22144;SDS011;11238;48.730;11.566;2023-07-02T09:47:29;14.77;;;8.57;;
22144;SDS011;11238;48.730;11.566;2023-07-02T09:49:58;15.98;;;8.60;;
22144;SDS011;11238;48.730;11.566;2023-07-02T09:52:27;17.02;;;8.23;;
22144;SDS011;11238;48.730;11.566;2023-07-02T09:54:53;16.95;;;8.10;;
22144;SDS011;11238;48.730;11.566;2023-07-02T09:57:19;20.42;;;8.77;;
22144;SDS011;11238;48.730;11.566;2023-07-02T09:59:44;16.27;;;8.48;;
22144;SDS011;11238;48.730;11.566;2023-07-02T10:02:11;16.73;;;8.40;;
22144;SDS011;11238;48.730;11.566;2023-07-02T10:04:42;14.05;;;8.05;;
22144;SDS011;11238;48.730;11.566;2023-07-02T10:07:13;12.75;;;7.68;;
22144;SDS011;11238;48.730;11.566;2023-07-02T10:09:51;15.27;;;9.00;;
22144;SDS011;11238;48.730;11.566;2023-07-02T10:12:18;18.05;;;8.10;;
22144;SDS011;11238;48.730;11.566;2023-07-02T10:14:46;17.30;;;8.30;;
22144;SDS011;11238;48.730;11.566;2023-07-02T10:17:29;15.13;;;8.23;;
22144;SDS011;11238;48.730;11.566;2023-07-02T10:20:00;19.38;;;8.05;;
22144;SDS011;11238;48.730;11.566;2023-07-02T10:22:44;12.88;;;7.20;;
22144;SDS011;11238;48.730;11.566;2023-07-02T10:25:12;15.27;;;7.78;;
22144;SDS011;11238;48.730;11.566;2023-07-02T10:27:56;15.32;;;7.65;;
22144;SDS011;11238;48.730;11.566;2023-07-02T10:30:30;15.75;;;8.23;;
22144;SDS011;11238;48.730;11.566;2023-07-02T10:33:07;12.73;;;7.80;;
22144;SDS011;11238;48.730;11.566;2023-07-02T10:35:43;15.73;;;8.32;;
22144;SDS011;11238;48.730;11.566;2023-07-02T10:38:13;13.23;;;7.88;;
22144;SDS011;11238;48.730;11.566;2023-07-02T10:40:42;14.98;;;7.50;;
22144;SDS011;11238;48.730;11.566;2023-07-02T10:43:08;18.40;;;7.03;;
22144;SDS011;11238;48.730;11.566;2023-07-02T10:45:34;15.02;;;7.72;;
22144;SDS011;11238;48.730;11.566;2023-07-02T10:48:08;14.23;;;8.38;;
22144;SDS011;11238;48.730;11.566;2023-07-02T10:50:35;18.17;;;8.18;;
22144;SDS011;11238;48.730;11.566;2023-07-02T10:53:01;16.40;;;8.60;;
22144;SDS011;11238;48.730;11.566;2023-07-02T10:55:28;15.55;;;7.72;;
22144;SDS011;11238;48.730;11.566;2023-07-02T10:58:04;14.85;;;8.45;;
22144;SDS011;11238;48.730;11.566;2023-07-02T11:00:54;14.25;;;7.72;;
22144;SDS011;11238;48.730;11.566;2023-07-02T11:03:21;12.55;;;7.72;;
22144;SDS011;11238;48.730;11.566;2023-07-02T11:05:51;15.32;;;7.57;;
22144;SDS011;11238;48.730;11.566;2023-07-02T11:08:18;13.77;;;7.65;;
22144;SDS011;11238;48.730;11.566;2023-07-02T11:10:48;14.32;;;7.63;;
22144;SDS011;11238;48.730;11.566;2023-07-02T11:13:18;13.43;;;8.43;;
22144;SDS011;11238;48.730;11.566;2023-07-02T11:15:45;14.20;;;7.13;;
22144;SDS011;11238;48.730;11.566;2023-07-02T11:18:12;18.13;;;7.53;;
22144;SDS011;11238;48.730;11.566;2023-07-02T11:20:42;13.75;;;7.30;;
22144;SDS011;11238;48.730;11.566;2023-07-02T11:23:22;12.30;;;7.25;;
22144;SDS011;11238;48.730;11.566;2023-07-02T11:25:56;10.52;;;6.80;;
22144;SDS011;11238;48.730;11.566;2023-07-02T11:28:23;14.07;;;7.53;;
22144;SDS011;11238;48.730;11.566;2023-07-02T11:30:51;11.80;;;7.53;;
22144;SDS011;11238;48.730;11.566;2023-07-02T11:33:17;12.50;;;7.20;;
22144;SDS011;11238;48.730;11.566;2023-07-02T11:35:43;10.63;;;6.75;;
22144;SDS011;11238;48.730;11.566;2023-07-02T11:38:09;12.85;;;6.90;;
22144;SDS011;11238;48.730;11.566;2023-07-02T11:40:36;12.75;;;7.13;;
22144;SDS011;11238;48.730;11.566;2023-07-02T11:43:02;13.82;;;7.03;;
22144;SDS011;11238;48.730;11.566;2023-07-02T11:45:28;15.00;;;6.72;;
22144;SDS011;11238;48.730;11.566;2023-07-02T11:47:54;14.75;;;6.85;;
22144;SDS011;11238;48.730;11.566;2023-07-02T11:50:20;13.15;;;6.60;;
22144;SDS011;11238;48.730;11.566;2023-07-02T11:52:46;12.05;;;6.70;;
22144;SDS011;11238;48.730;11.566;2023-07-02T11:55:12;13.27;;;6.72;;
22144;SDS011;11238;48.730;11.566;2023-07-02T11:57:38;15.13;;;7.00;;
22144;SDS011;11238;48.730;11.566;2023-07-02T12:00:04;14.85;;;7.00;;
22144;SDS011;11238;48.730;11.566;2023-07-02T12:02:33;9.65;;;6.43;;
22144;SDS011;11238;48.730;11.566;2023-07-02T12:04:59;10.30;;;6.80;;
22144;SDS011;11238;48.730;11.566;2023-07-02T12:07:25;12.68;;;6.82;;
22144;SDS011;11238;48.730;11.566;2023-07-02T12:09:51;12.38;;;6.45;;
22144;SDS011;11238;48.730;11.566;2023-07-02T12:12:17;11.32;;;7.00;;
22144;SDS011;11238;48.730;11.566;2023-07-02T12:14:44;10.32;;;6.30;;
22144;SDS011;11238;48.730;11.566;2023-07-02T12:17:10;12.52;;;6.70;;
22144;SDS011;11238;48.730;11.566;2023-07-02T12:19:39;10.00;;;6.18;;
22144;SDS011;11238;48.730;11.566;2023-07-02T12:22:05;12.68;;;6.47;;
22144;SDS011;11238;48.730;11.566;2023-07-02T12:24:31;12.52;;;6.72;;
22144;SDS011;11238;48.730;11.566;2023-07-02T12:26:57;12.13;;;6.85;;
22144;SDS011;11238;48.730;11.566;2023-07-02T12:29:23;12.93;;;7.25;;
22144;SDS011;11238;48.730;11.566;2023-07-02T12:31:51;13.95;;;7.57;;
22144;SDS011;11238;48.730;11.566;2023-07-02T12:34:17;12.10;;;6.47;;
22144;SDS011;11238;48.730;11.566;2023-07-02T12:36:43;12.32;;;6.53;;
22144;SDS011;11238;48.730;11.566;2023-07-02T12:39:08;11.95;;;6.78;;
22144;SDS011;11238;48.730;11.566;2023-07-02T12:41:35;10.95;;;6.85;;
22144;SDS011;11238;48.730;11.566;2023-07-02T12:44:01;13.25;;;6.70;;
22144;SDS011;11238;48.730;11.566;2023-07-02T12:46:27;13.55;;;7.25;;
22144;SDS011;11238;48.730;11.566;2023-07-02T12:48:53;10.07;;;7.18;;
22144;SDS011;11238;48.730;11.566;2023-07-02T12:51:18;13.70;;;7.30;;
22144;SDS011;11238;48.730;11.566;2023-07-02T12:53:44;11.90;;;6.80;;
22144;SDS011;11238;48.730;11.566;2023-07-02T12:59:22;12.00;;;7.03;;
22144;SDS011;11238;48.730;11.566;2023-07-02T13:01:48;14.60;;;8.10;;
22144;SDS011;11238;48.730;11.566;2023-07-02T13:04:14;13.27;;;7.40;;
22144;SDS011;11238;48.730;11.566;2023-07-02T13:06:40;13.65;;;7.53;;
22144;SDS011;11238;48.730;11.566;2023-07-02T13:09:07;15.32;;;8.07;;
22144;SDS011;11238;48.730;11.566;2023-07-02T13:11:34;15.82;;;8.68;;
22144;SDS011;11238;48.730;11.566;2023-07-02T13:14:00;14.13;;;8.00;;
22144;SDS011;11238;48.730;11.566;2023-07-02T13:16:26;13.02;;;8.25;;
22144;SDS011;11238;48.730;11.566;2023-07-02T13:18:52;15.30;;;9.00;;
22144;SDS011;11238;48.730;11.566;2023-07-02T13:21:20;16.17;;;9.13;;
22144;SDS011;11238;48.730;11.566;2023-07-02T13:23:46;16.88;;;9.93;;
22144;SDS011;11238;48.730;11.566;2023-07-02T13:26:12;18.70;;;11.98;;
22144;SDS011;11238;48.730;11.566;2023-07-02T13:28:38;21.58;;;12.07;;
22144;SDS011;11238;48.730;11.566;2023-07-02T13:31:03;30.98;;;13.52;;
22144;SDS011;11238;48.730;11.566;2023-07-02T13:33:29;27.50;;;17.63;;
22144;SDS011;11238;48.730;11.566;2023-07-02T13:35:56;24.98;;;16.55;;
22144;SDS011;11238;48.730;11.566;2023-07-02T13:38:23;23.13;;;15.32;;
22144;SDS011;11238;48.730;11.566;2023-07-02T13:40:49;32.35;;;18.02;;
22144;SDS011;11238;48.730;11.566;2023-07-02T13:43:15;28.70;;;17.55;;
22144;SDS011;11238;48.730;11.566;2023-07-02T13:45:41;27.80;;;17.40;;
22144;SDS011;11238;48.730;11.566;2023-07-02T13:48:07;23.45;;;15.30;;
22144;SDS011;11238;48.730;11.566;2023-07-02T13:50:33;29.05;;;16.67;;
22144;SDS011;11238;48.730;11.566;2023-07-02T13:52:59;25.92;;;16.17;;
22144;SDS011;11238;48.730;11.566;2023-07-02T13:55:25;25.17;;;16.38;;
22144;SDS011;11238;48.730;11.566;2023-07-02T13:57:55;21.75;;;14.80;;
22144;SDS011;11238;48.730;11.566;2023-07-02T14:00:25;23.58;;;14.15;;
22144;SDS011;11238;48.730;11.566;2023-07-02T14:02:52;22.15;;;15.68;;
22144;SDS011;11238;48.730;11.566;2023-07-02T14:05:18;22.08;;;14.55;;
22144;SDS011;11238;48.730;11.566;2023-07-02T14:07:45;21.75;;;15.18;;
22144;SDS011;11238;48.730;11.566;2023-07-02T14:10:10;25.60;;;16.45;;
22144;SDS011;11238;48.730;11.566;2023-07-02T14:12:38;30.55;;;17.95;;
22144;SDS011;11238;48.730;11.566;2023-07-02T14:15:05;25.80;;;17.70;;
22144;SDS011;11238;48.730;11.566;2023-07-02T14:17:31;28.02;;;17.80;;
22144;SDS011;11238;48.730;11.566;2023-07-02T14:19:57;29.67;;;18.60;;
22144;SDS011;11238;48.730;11.566;2023-07-02T14:22:23;28.10;;;18.38;;
22144;SDS011;11238;48.730;11.566;2023-07-02T14:24:51;28.80;;;19.52;;
22144;SDS011;11238;48.730;11.566;2023-07-02T14:27:17;31.85;;;18.83;;
22144;SDS011;11238;48.730;11.566;2023-07-02T14:30:07;27.65;;;18.15;;
22144;SDS011;11238;48.730;11.566;2023-07-02T14:32:34;28.80;;;17.20;;
22144;SDS011;11238;48.730;11.566;2023-07-02T14:35:03;28.58;;;18.27;;
22144;SDS011;11238;48.730;11.566;2023-07-02T14:37:31;27.15;;;18.15;;
22144;SDS011;11238;48.730;11.566;2023-07-02T14:39:56;28.38;;;18.50;;